createdAt,value
2023-03-17T00:01:16.993Z,4.20
2023-03-17T00:03:45.702Z,5.80
2023-03-17T00:06:33.834Z,7.10
2023-03-17T00:09:01.322Z,13.45
2023-03-17T00:11:28.449Z,5.15
2023-03-17T00:13:55.434Z,8.05
2023-03-17T00:16:25.519Z,7.63
2023-03-17T00:18:53.781Z,7.47
2023-03-17T00:21:33.040Z,6.93
2023-03-17T00:24:01.321Z,4.38
2023-03-17T00:26:28.850Z,7.80
2023-03-17T00:28:55.926Z,5.90
2023-03-17T00:31:25.368Z,12.05
2023-03-17T00:33:54.756Z,6.05
2023-03-17T00:36:30.823Z,5.97
2023-03-17T00:38:58.760Z,2.63
2023-03-17T00:41:27.108Z,7.07
2023-03-17T00:44:13.213Z,6.45
2023-03-17T00:46:41.666Z,5.82
2023-03-17T00:49:21.264Z,6.20
2023-03-17T00:51:49.690Z,8.07
2023-03-17T00:54:18.090Z,4.30
2023-03-17T00:56:45.655Z,6.05
2023-03-17T00:59:38.012Z,4.57
2023-03-17T01:02:04.989Z,6.22
2023-03-17T01:04:33.969Z,9.32
2023-03-17T01:07:00.837Z,5.68
2023-03-17T01:09:28.600Z,7.20
2023-03-17T01:11:57.662Z,5.60
2023-03-17T01:14:24.877Z,3.60
2023-03-17T01:16:55.516Z,4.43
2023-03-17T01:19:23.008Z,11.18
2023-03-17T01:21:50.279Z,9.52
2023-03-17T01:24:17.354Z,6.53
2023-03-17T01:26:44.672Z,7.68
2023-03-17T01:29:12.094Z,3.80
2023-03-17T01:31:39.404Z,6.28
2023-03-17T01:34:06.380Z,6.32
2023-03-17T01:36:34.283Z,6.97
2023-03-17T01:39:01.320Z,6.53
2023-03-17T01:41:28.211Z,6.35
2023-03-17T01:43:55.119Z,5.45
2023-03-17T01:46:31.681Z,7.28
2023-03-17T01:49:25.811Z,5.65
2023-03-17T01:52:04.641Z,8.98
2023-03-17T01:54:37.464Z,6.45
2023-03-17T01:57:31.440Z,5.38
2023-03-17T02:00:05.247Z,4.38
2023-03-17T02:02:45.291Z,7.00
2023-03-17T02:05:17.050Z,7.00
2023-03-17T02:07:48.446Z,4.03
2023-03-17T02:10:19.262Z,4.30
2023-03-17T02:12:49.790Z,7.38
2023-03-17T02:15:17.438Z,5.90
2023-03-17T02:17:44.279Z,4.53
2023-03-17T02:20:17.233Z,4.03
2023-03-17T02:22:50.363Z,2.97
2023-03-17T02:25:17.624Z,7.50
2023-03-17T02:27:47.910Z,6.22
2023-03-17T02:32:43.516Z,5.57
2023-03-17T02:35:10.853Z,2.47
2023-03-17T02:37:38.294Z,9.60
2023-03-17T02:40:07.751Z,5.45
2023-03-17T02:42:34.681Z,3.40
2023-03-17T02:45:02.304Z,4.03
2023-03-17T02:47:29.170Z,4.03
2023-03-17T02:49:56.346Z,4.65
2023-03-17T02:52:23.200Z,3.88
2023-03-17T02:54:50.185Z,13.25
2023-03-17T02:57:17.081Z,3.35
2023-03-17T02:59:44.087Z,3.50
2023-03-17T03:02:11.635Z,2.20
2023-03-17T03:04:38.714Z,7.05
2023-03-17T03:07:06.212Z,7.65
2023-03-17T03:09:33.047Z,4.88
2023-03-17T03:12:00.542Z,4.63
2023-03-17T03:14:27.691Z,6.18
2023-03-17T03:16:54.864Z,1.98
2023-03-17T03:19:22.751Z,5.43
2023-03-17T03:21:49.751Z,2.58
2023-03-17T03:24:16.994Z,8.50
2023-03-17T03:26:43.955Z,4.90
2023-03-17T03:29:10.801Z,4.45
2023-03-17T03:31:37.700Z,4.35
2023-03-17T03:34:04.554Z,3.58
2023-03-17T03:36:32.377Z,3.08
2023-03-17T03:39:00.921Z,8.43
2023-03-17T03:41:27.791Z,4.53
2023-03-17T03:43:54.592Z,5.03
2023-03-17T03:46:21.450Z,4.97
2023-03-17T03:48:48.400Z,7.75
2023-03-17T03:51:15.200Z,2.65
2023-03-17T03:53:42.018Z,4.07
2023-03-17T03:56:08.820Z,3.92
2023-03-17T03:58:35.706Z,5.38
2023-03-17T04:01:06.720Z,5.30
2023-03-17T04:03:33.520Z,4.80
2023-03-17T04:06:00.330Z,9.68
2023-03-17T04:08:27.268Z,7.13
2023-03-17T04:10:54.097Z,5.78
2023-03-17T04:13:20.960Z,4.53
2023-03-17T04:15:47.856Z,8.00
2023-03-17T04:18:14.792Z,5.75
2023-03-17T04:20:41.677Z,5.07
2023-03-17T04:23:08.663Z,2.42
2023-03-17T04:25:35.597Z,3.70
2023-03-17T04:28:02.450Z,5.28
2023-03-17T04:30:29.473Z,7.20
2023-03-17T04:32:56.640Z,6.70
2023-03-17T04:35:23.557Z,5.25
2023-03-17T04:37:51.040Z,7.70
2023-03-17T04:40:19.012Z,7.57
2023-03-17T04:42:46.454Z,6.60
2023-03-17T04:45:17.342Z,3.92
2023-03-17T04:47:46.234Z,4.53
2023-03-17T04:50:14.636Z,5.30
2023-03-17T04:52:42.130Z,5.18
2023-03-17T04:55:09.739Z,3.78
2023-03-17T04:57:37.082Z,7.03
2023-03-17T05:00:06.066Z,6.22
2023-03-17T05:02:33.068Z,3.78
2023-03-17T05:04:59.920Z,8.25
2023-03-17T05:07:26.834Z,5.45
2023-03-17T05:09:53.634Z,4.60
2023-03-17T05:12:20.568Z,6.75
2023-03-17T05:14:47.362Z,6.90
2023-03-17T05:17:14.520Z,7.82
2023-03-17T05:19:41.503Z,11.05
2023-03-17T05:22:08.410Z,12.70
2023-03-17T05:24:35.338Z,7.35
2023-03-17T05:27:02.140Z,5.95
2023-03-17T05:29:29.069Z,5.07
2023-03-17T05:31:55.918Z,5.18
2023-03-17T05:34:22.754Z,4.18
2023-03-17T05:36:50.483Z,6.30
2023-03-17T05:39:17.555Z,8.10
2023-03-17T05:41:44.406Z,6.45
2023-03-17T05:44:11.271Z,5.13
2023-03-17T05:46:38.053Z,4.63
2023-03-17T05:49:04.936Z,6.35
2023-03-17T05:51:32.035Z,5.22
2023-03-17T05:53:58.817Z,7.55
2023-03-17T05:56:27.288Z,7.80
2023-03-17T05:58:54.167Z,5.95
2023-03-17T06:01:21.087Z,7.57
2023-03-17T06:03:48.387Z,7.28
2023-03-17T06:06:16.354Z,6.35
2023-03-17T06:08:43.191Z,5.72
2023-03-17T06:11:10.136Z,4.07
2023-03-17T06:13:36.968Z,5.78
2023-03-17T06:16:03.963Z,5.70
2023-03-17T06:18:30.875Z,2.78
2023-03-17T06:20:57.764Z,4.18
2023-03-17T06:23:24.858Z,6.38
2023-03-17T06:25:51.659Z,6.10
2023-03-17T06:28:18.567Z,5.78
2023-03-17T06:30:45.717Z,7.07
2023-03-17T06:33:13.172Z,4.70
2023-03-17T06:35:40.492Z,9.70
2023-03-17T06:38:07.734Z,5.68
2023-03-17T06:40:34.605Z,12.18
2023-03-17T06:43:01.971Z,6.13
2023-03-17T06:45:29.502Z,4.50
2023-03-17T06:47:57.035Z,11.90
2023-03-17T06:50:23.967Z,8.45
2023-03-17T06:52:51.063Z,10.77
2023-03-17T06:55:18.041Z,10.98
2023-03-17T06:57:44.864Z,5.55
2023-03-17T07:00:14.089Z,12.10
2023-03-17T07:02:41.321Z,6.50
2023-03-17T07:05:08.583Z,13.45
2023-03-17T07:07:35.691Z,7.75
2023-03-17T07:10:03.412Z,8.05
2023-03-17T07:12:30.324Z,9.35
2023-03-17T07:14:58.055Z,7.55
2023-03-17T07:17:25.343Z,3.05
2023-03-17T07:19:52.484Z,3.47
2023-03-17T07:22:19.375Z,4.25
2023-03-17T07:24:48.986Z,8.80
2023-03-17T07:27:16.926Z,7.80
2023-03-17T07:29:43.877Z,5.25
2023-03-17T07:32:11.092Z,4.43
2023-03-17T07:34:38.128Z,7.90
2023-03-17T07:37:06.957Z,6.78
2023-03-17T07:39:34.032Z,4.68
2023-03-17T07:42:00.845Z,14.70
2023-03-17T07:44:27.876Z,7.70
2023-03-17T07:46:55.345Z,6.50
2023-03-17T07:49:38.100Z,6.78
2023-03-17T07:52:08.534Z,7.25
2023-03-17T07:54:36.289Z,3.50
2023-03-17T07:57:04.191Z,5.82
2023-03-17T07:59:31.665Z,8.10
2023-03-17T08:02:00.330Z,5.65
2023-03-17T08:04:27.806Z,10.80
2023-03-17T08:06:54.740Z,7.38
2023-03-17T08:09:25.082Z,7.75
2023-03-17T08:11:52.081Z,4.00
2023-03-17T08:14:19.126Z,5.20
2023-03-17T08:16:46.053Z,4.45
2023-03-17T08:19:13.030Z,5.93
2023-03-17T08:21:39.953Z,4.57
2023-03-17T08:24:06.891Z,8.65
2023-03-17T08:26:34.347Z,10.20
2023-03-17T08:29:01.451Z,8.95
2023-03-17T08:31:28.625Z,5.63
2023-03-17T08:33:57.203Z,2.15
2023-03-17T08:36:26.099Z,4.57
2023-03-17T08:38:53.257Z,13.00
2023-03-17T08:41:24.192Z,9.70
2023-03-17T08:43:51.701Z,10.48
2023-03-17T08:46:27.249Z,16.98
2023-03-17T08:48:56.428Z,9.30
2023-03-17T08:51:25.478Z,11.60
2023-03-17T08:53:53.935Z,4.70
2023-03-17T08:56:21.762Z,3.72
2023-03-17T08:58:49.874Z,14.35
2023-03-17T09:01:17.376Z,9.35
2023-03-17T09:03:45.602Z,8.38
2023-03-17T09:06:13.587Z,10.13
2023-03-17T09:08:45.050Z,7.85
2023-03-17T09:11:14.931Z,5.88
2023-03-17T09:13:42.072Z,7.35
2023-03-17T09:16:10.058Z,7.30
2023-03-17T09:18:37.317Z,8.38
2023-03-17T09:21:05.151Z,7.82
2023-03-17T09:23:32.904Z,8.68
2023-03-17T09:26:00.237Z,8.80
2023-03-17T09:28:27.127Z,7.38
2023-03-17T09:31:02.386Z,9.30
2023-03-17T09:33:30.145Z,11.32
2023-03-17T09:35:57.496Z,9.70
2023-03-17T09:38:26.498Z,7.28
2023-03-17T09:41:07.850Z,9.32
2023-03-17T09:43:52.932Z,14.40
2023-03-17T09:46:48.365Z,8.98
2023-03-17T09:49:26.660Z,10.48
2023-03-17T09:51:53.729Z,5.93
2023-03-17T09:54:25.962Z,7.78
2023-03-17T09:57:01.726Z,8.40
2023-03-17T09:59:40.516Z,11.13
2023-03-17T10:02:20.662Z,8.80
2023-03-17T10:04:48.804Z,4.32
2023-03-17T10:07:22.545Z,5.10
2023-03-17T10:10:03.342Z,4.82
2023-03-17T10:12:59.745Z,1.88
2023-03-17T10:15:43.679Z,4.20
2023-03-17T10:18:14.062Z,4.75
2023-03-17T10:20:51.721Z,6.95
2023-03-17T10:23:23.954Z,4.75
2023-03-17T10:25:50.818Z,7.15
2023-03-17T10:28:32.604Z,14.77
2023-03-17T10:31:14.782Z,9.68
2023-03-17T10:33:42.353Z,5.90
2023-03-17T10:36:10.714Z,9.40
2023-03-17T10:38:37.648Z,2.70
2023-03-17T10:41:12.477Z,6.85
2023-03-17T10:43:45.856Z,12.45
2023-03-17T10:46:19.653Z,4.93
2023-03-17T10:48:53.052Z,8.80
2023-03-17T10:51:32.070Z,16.05
2023-03-17T10:54:08.467Z,9.27
2023-03-17T10:56:38.700Z,10.75
2023-03-17T10:59:18.970Z,9.25
2023-03-17T11:01:54.483Z,4.82
2023-03-17T11:04:36.504Z,4.65
2023-03-17T11:07:39.815Z,26.85
2023-03-17T11:10:21.111Z,13.20
2023-03-17T11:12:54.469Z,13.63
2023-03-17T11:15:22.755Z,15.00
2023-03-17T11:17:59.551Z,13.95
2023-03-17T11:21:02.192Z,11.82
2023-03-17T11:23:59.133Z,7.32
2023-03-17T11:26:53.844Z,5.25
2023-03-17T11:29:49.112Z,10.63
2023-03-17T11:32:28.661Z,7.60
2023-03-17T11:35:29.674Z,11.90
2023-03-17T11:38:02.369Z,8.27
2023-03-17T11:40:44.215Z,6.63
2023-03-17T11:43:31.528Z,5.18
2023-03-17T11:46:40.779Z,4.68
2023-03-17T11:49:30.683Z,7.85
2023-03-17T11:52:11.018Z,8.02
2023-03-17T11:54:58.903Z,12.88
2023-03-17T11:57:42.917Z,11.85
2023-03-17T12:00:42.901Z,2.85
2023-03-17T12:03:28.813Z,6.28
2023-03-17T12:06:05.510Z,5.53
2023-03-17T12:08:48.149Z,13.75
2023-03-17T12:11:22.047Z,6.18
2023-03-17T12:13:55.129Z,9.30
2023-03-17T12:16:46.321Z,9.68
2023-03-17T12:19:22.468Z,9.23
2023-03-17T12:22:07.273Z,8.13
2023-03-17T12:24:57.466Z,9.02
2023-03-17T12:27:30.280Z,14.30
2023-03-17T12:30:17.519Z,10.38
2023-03-17T12:32:49.391Z,25.25
2023-03-17T12:35:29.454Z,9.15
2023-03-17T12:37:59.396Z,6.53
2023-03-17T12:40:49.669Z,15.68
2023-03-17T12:43:58.073Z,9.35
2023-03-17T12:46:42.813Z,6.90
2023-03-17T12:49:24.461Z,9.45
2023-03-17T12:52:06.423Z,9.50
2023-03-17T12:54:38.064Z,7.65
2023-03-17T12:57:17.079Z,7.10
2023-03-17T12:59:46.707Z,9.90
2023-03-17T13:02:37.568Z,5.65
2023-03-17T13:05:16.641Z,5.47
2023-03-17T13:07:52.771Z,16.02
2023-03-17T13:10:37.418Z,7.22
2023-03-17T13:13:36.339Z,4.68
2023-03-17T13:16:05.998Z,6.47
2023-03-17T13:18:35.927Z,5.30
2023-03-17T13:21:02.689Z,9.40
2023-03-17T13:23:37.792Z,8.20
2023-03-17T13:26:04.607Z,11.80
2023-03-17T13:28:34.856Z,11.02
2023-03-17T13:31:08.795Z,5.40
2023-03-17T13:33:45.025Z,13.35
2023-03-17T13:36:22.830Z,12.77
2023-03-17T13:39:24.828Z,10.40
2023-03-17T13:42:34.895Z,7.18
2023-03-17T13:45:10.726Z,10.40
2023-03-17T13:47:42.213Z,7.50
2023-03-17T13:50:09.786Z,6.60
2023-03-17T13:52:42.125Z,14.02
2023-03-17T13:55:18.292Z,15.35
2023-03-17T13:57:56.433Z,8.90
2023-03-17T14:00:27.834Z,12.68
2023-03-17T14:03:06.982Z,23.60
2023-03-17T14:05:38.008Z,14.68
2023-03-17T14:08:16.491Z,10.15
2023-03-17T14:10:44.547Z,10.77
2023-03-17T14:13:20.583Z,11.98
2023-03-17T14:15:51.652Z,14.45
2023-03-17T14:18:30.734Z,15.20
2023-03-17T14:21:00.611Z,10.73
2023-03-17T14:23:28.072Z,13.60
2023-03-17T14:25:59.974Z,11.68
2023-03-17T14:28:32.332Z,14.75
2023-03-17T14:31:04.991Z,10.52
2023-03-17T14:33:41.822Z,12.95
2023-03-17T14:36:14.207Z,14.70
2023-03-17T14:38:48.695Z,12.02
2023-03-17T14:41:16.964Z,16.70
2023-03-17T14:43:44.734Z,21.25
2023-03-17T14:46:35.341Z,24.58
2023-03-17T14:51:36.582Z,25.90
2023-03-17T14:54:06.309Z,17.90
2023-03-17T14:56:38.761Z,13.15
2023-03-17T14:59:25.969Z,12.15
2023-03-17T15:01:58.377Z,13.00
2023-03-17T15:04:28.355Z,11.52
2023-03-17T15:06:57.617Z,20.60
2023-03-17T15:09:35.466Z,16.95
2023-03-17T15:12:24.700Z,11.60
2023-03-17T15:14:53.880Z,16.10
2023-03-17T15:17:26.296Z,17.85
2023-03-17T15:19:58.014Z,11.52
2023-03-17T15:22:29.582Z,22.02
2023-03-17T15:25:18.271Z,15.20
2023-03-17T15:27:46.476Z,25.88
2023-03-17T15:30:14.047Z,18.77
2023-03-17T15:32:40.923Z,19.33
2023-03-17T15:35:11.796Z,11.32
2023-03-17T15:37:38.684Z,10.70
2023-03-17T15:40:06.247Z,22.33
2023-03-17T15:42:35.882Z,18.95
2023-03-17T15:45:03.847Z,23.67
2023-03-17T15:47:37.063Z,14.25
2023-03-17T15:50:17.936Z,14.07
2023-03-17T15:52:46.001Z,16.42
2023-03-17T15:55:25.338Z,17.80
2023-03-17T15:57:55.250Z,13.77
2023-03-17T16:00:24.429Z,21.98
2023-03-17T16:02:54.176Z,14.63
2023-03-17T16:05:28.108Z,16.45
2023-03-17T16:07:55.390Z,12.45
2023-03-17T16:10:26.153Z,21.02
2023-03-17T16:12:53.608Z,18.80
2023-03-17T16:15:26.176Z,20.38
2023-03-17T16:17:56.685Z,19.52
2023-03-17T16:22:55.632Z,22.50
2023-03-17T16:25:22.823Z,23.30
2023-03-17T16:27:49.841Z,20.60
2023-03-17T16:30:22.723Z,18.17
2023-03-17T16:32:50.171Z,16.52
2023-03-17T16:35:19.623Z,19.42
2023-03-17T16:37:47.670Z,15.63
2023-03-17T16:40:20.293Z,16.58
2023-03-17T16:42:47.301Z,17.90
2023-03-17T16:45:21.858Z,18.25
2023-03-17T16:47:49.735Z,15.70
2023-03-17T16:50:23.130Z,20.02
2023-03-17T16:52:50.020Z,14.95
2023-03-17T16:55:18.332Z,15.38
2023-03-17T16:57:47.739Z,18.83
2023-03-17T17:00:21.701Z,20.30
2023-03-17T17:02:49.848Z,13.65
2023-03-17T17:05:22.824Z,21.48
2023-03-17T17:07:50.468Z,20.67
2023-03-17T17:10:19.567Z,20.20
2023-03-17T17:12:47.272Z,16.65
2023-03-17T17:15:17.051Z,20.60
2023-03-17T17:17:55.387Z,18.48
2023-03-17T17:20:30.659Z,15.38
2023-03-17T17:22:59.248Z,17.73
2023-03-17T17:25:27.059Z,21.15
2023-03-17T17:27:54.501Z,15.57
2023-03-17T17:30:28.260Z,12.88
2023-03-17T17:32:57.627Z,15.95
2023-03-17T17:35:26.211Z,19.17
2023-03-17T17:37:53.500Z,14.20
2023-03-17T17:40:21.797Z,18.33
2023-03-17T17:42:48.676Z,18.42
2023-03-17T17:45:16.057Z,13.93
2023-03-17T17:47:43.066Z,19.30
2023-03-17T17:50:16.805Z,12.98
2023-03-17T17:52:43.650Z,14.55
2023-03-17T17:55:10.678Z,18.52
2023-03-17T17:57:37.475Z,14.80
2023-03-17T18:00:06.597Z,15.85
2023-03-17T18:02:35.518Z,12.13
2023-03-17T18:05:03.122Z,24.63
2023-03-17T18:07:29.949Z,15.30
2023-03-17T18:09:56.759Z,12.02
2023-03-17T18:12:23.584Z,19.02
2023-03-17T18:14:50.453Z,22.08
2023-03-17T18:17:21.709Z,15.73
2023-03-17T18:19:53.445Z,18.23
2023-03-17T18:22:21.570Z,15.57
2023-03-17T18:24:49.381Z,13.20
2023-03-17T18:27:16.878Z,13.88
2023-03-17T18:29:44.057Z,13.13
2023-03-17T18:32:12.777Z,14.30
2023-03-17T18:34:43.769Z,17.05
2023-03-17T18:37:17.430Z,14.85
2023-03-17T18:39:48.376Z,14.38
2023-03-17T18:42:17.575Z,17.08
2023-03-17T18:44:44.350Z,16.80
2023-03-17T18:47:11.486Z,13.05
2023-03-17T18:49:38.276Z,17.23
2023-03-17T18:52:05.188Z,16.63
2023-03-17T18:54:32.380Z,12.65
2023-03-17T18:56:59.270Z,18.90
2023-03-17T18:59:26.092Z,14.18
2023-03-17T19:01:53.001Z,16.08
2023-03-17T19:04:19.851Z,12.57
2023-03-17T19:06:46.648Z,13.73
2023-03-17T19:09:13.534Z,15.88
2023-03-17T19:11:40.967Z,12.93
2023-03-17T19:14:08.640Z,14.00
2023-03-17T19:16:36.080Z,27.92
2023-03-17T19:19:03.845Z,19.10
2023-03-17T19:21:31.057Z,18.58
2023-03-17T19:24:01.242Z,11.93
2023-03-17T19:26:28.596Z,12.90
2023-03-17T19:28:56.751Z,14.68
2023-03-17T19:31:24.864Z,14.05
2023-03-17T19:33:52.134Z,12.32
2023-03-17T19:36:19.286Z,18.58
2023-03-17T19:38:46.380Z,15.45
2023-03-17T19:41:14.675Z,13.20
2023-03-17T19:43:41.908Z,14.05
2023-03-17T19:46:12.964Z,14.77
2023-03-17T19:48:40.719Z,14.95
2023-03-17T19:51:08.116Z,13.73
2023-03-17T19:53:35.490Z,11.38
2023-03-17T19:56:02.309Z,12.27
2023-03-17T19:58:29.215Z,14.93
2023-03-17T20:00:56.345Z,16.92
2023-03-17T20:03:25.670Z,16.58
2023-03-17T20:05:53.447Z,16.63
2023-03-17T20:08:22.331Z,11.30
2023-03-17T20:10:53.986Z,17.27
2023-03-17T20:13:22.171Z,13.77
2023-03-17T20:15:50.090Z,12.32
2023-03-17T20:18:18.746Z,14.30
2023-03-17T20:20:51.079Z,16.55
2023-03-17T20:23:18.400Z,13.77
2023-03-17T20:25:45.683Z,10.35
2023-03-17T20:28:13.208Z,14.85
2023-03-17T20:30:40.836Z,14.70
2023-03-17T20:33:09.763Z,14.05
2023-03-17T20:35:39.692Z,13.90
2023-03-17T20:38:07.458Z,18.42
2023-03-17T20:40:34.747Z,18.50
2023-03-17T20:43:01.710Z,19.38
2023-03-17T20:45:29.301Z,11.50
2023-03-17T20:47:56.278Z,14.80
2023-03-17T20:50:23.646Z,16.52
2023-03-17T20:52:50.976Z,18.95
2023-03-17T20:55:19.717Z,17.52
2023-03-17T20:57:47.548Z,14.90
2023-03-17T21:00:21.992Z,19.77
2023-03-17T21:02:50.465Z,15.82
2023-03-17T21:05:24.804Z,19.35
2023-03-17T21:07:52.661Z,15.32
2023-03-17T21:10:19.818Z,17.13
2023-03-17T21:12:46.730Z,13.25
2023-03-17T21:15:14.123Z,14.48
2023-03-17T21:17:43.092Z,14.90
2023-03-17T21:20:12.373Z,16.55
2023-03-17T21:22:40.000Z,13.07
2023-03-17T21:25:08.912Z,13.85
2023-03-17T21:27:39.822Z,17.67
2023-03-17T21:30:13.470Z,16.35
2023-03-17T21:32:41.763Z,15.15
2023-03-17T21:35:09.108Z,18.33
2023-03-17T21:37:36.171Z,14.82
2023-03-17T21:40:06.680Z,13.90
2023-03-17T21:42:34.039Z,21.20
2023-03-17T21:45:01.051Z,12.82
2023-03-17T21:47:30.052Z,15.70
2023-03-17T21:49:58.045Z,13.32
2023-03-17T21:52:25.614Z,22.63
2023-03-17T21:54:53.318Z,14.68
2023-03-17T21:57:20.201Z,14.85
2023-03-17T21:59:48.074Z,14.73
2023-03-17T22:02:18.130Z,20.17
2023-03-17T22:04:46.843Z,16.17
2023-03-17T22:07:14.026Z,14.20
2023-03-17T22:09:41.825Z,20.48
2023-03-17T22:12:08.874Z,19.40
2023-03-17T22:14:37.519Z,15.10
2023-03-17T22:17:08.301Z,14.55
2023-03-17T22:19:35.206Z,25.05
2023-03-17T22:22:03.630Z,17.92
2023-03-17T22:24:32.375Z,15.57
2023-03-17T22:26:59.488Z,18.58
2023-03-17T22:29:26.466Z,15.18
2023-03-17T22:31:53.387Z,17.30
2023-03-17T22:34:20.248Z,18.80
2023-03-17T22:36:47.099Z,17.92
2023-03-17T22:39:14.253Z,15.90
2023-03-17T22:41:41.191Z,19.98
2023-03-17T22:44:09.883Z,21.08
2023-03-17T22:46:38.058Z,26.52
2023-03-17T22:49:05.446Z,22.13
2023-03-17T22:51:32.314Z,21.33
2023-03-17T22:53:59.265Z,26.42
2023-03-17T22:56:26.770Z,18.80
2023-03-17T22:58:54.692Z,24.95
2023-03-17T23:01:23.913Z,18.95
2023-03-17T23:03:51.164Z,17.13
2023-03-17T23:06:18.124Z,17.08
2023-03-17T23:08:46.024Z,16.85
2023-03-17T23:11:19.733Z,27.95
2023-03-17T23:13:47.733Z,16.58
2023-03-17T23:16:15.234Z,18.15
2023-03-17T23:18:45.450Z,16.65
2023-03-17T23:21:28.884Z,20.33
2023-03-17T23:23:56.126Z,18.08
2023-03-17T23:26:23.247Z,16.27
2023-03-17T23:28:50.343Z,16.70
2023-03-17T23:31:19.243Z,18.98
2023-03-17T23:33:47.448Z,21.27
2023-03-17T23:36:15.256Z,22.92
2023-03-17T23:38:42.926Z,20.15
2023-03-17T23:41:12.740Z,18.38
2023-03-17T23:43:40.501Z,17.70
2023-03-17T23:46:07.411Z,17.77
2023-03-17T23:48:34.229Z,17.65
2023-03-17T23:51:01.144Z,17.33
2023-03-17T23:53:28.425Z,15.02
2023-03-17T23:55:55.305Z,14.98
2023-03-17T23:58:22.952Z,21.58
